Aviation Digital Data Service (ADDS)

Output produced by TAFs form (0254 UTC 21 June 2018)
found at http://www.aviationweather.gov/adds/tafs/
 
METAR text: WSSL 210200Z 33004KT 290V360 5000 HZ FEW016 BKN150 29/25 Q1012 RMK 0130Z Q1012
Conditions at: WSSL (SINGAPORE/SELETA, SG) observed 0200 UTC 21 June 2018
Temperature: 29.0°C (84°F)
Dewpoint: 25.0°C (77°F) [RH = 79%]
Pressure (altimeter): 29.88 inches Hg (1012.0 mb)
Winds: from the NNW (330 degrees) at 5 MPH (4 knots; 2.1 m/s)
Visibility: 3 miles (5 km)
Ceiling: 15000 feet AGL
Clouds: few clouds at 1600 feet AGL
broken clouds at 15000 feet AGL
Weather: HZ  (haze)

Forecast for: WSSL (SINGAPORE/SELETA, SG)
Text: TAF WSSL 202300Z 2100/2206 15009KT 9999 FEW018CB SCT020
Forecast period: 0000 UTC 21 June 2018 to 0600 UTC 22 June 2018
Forecast type: FROM: standard forecast or significant change
Winds: from the SSE (150 degrees) at 10 MPH (9 knots; 4.7 m/s)
Visibility: 6 or more miles (10+ km)
Clouds: few clouds at 1800 feet AGL
scattered clouds at 2000 feet AGL
Weather: no significant weather forecast for this period
Text: TEMPO 2106/2110 4000 TSRA FEW012CB BKN015
Forecast period: 0600 to 1000 UTC 21 June 2018
Forecast type: TEMPORARY: The following changes expected for less than half the time period
Visibility: 2.49 miles (4.01 km)
Ceiling: 1500 feet AGL
Clouds: few clouds at 1200 feet AGL
broken clouds at 1500 feet AGL
Weather: TSRA  (rain associated with thunderstorm(s))